Flight Track Log - Related Links

Times and Time Zones

All times are in EDT time to prevent confusion due to time zone crossing. See the GJS3618 flight status page for this flight to view local times or setup timezone preferences in your user account.


Time Position Orientation Groundspeed Altitude Reporting Facility
EDT Latitude Longitude Course Direction KTS MPH feet Rate Location/Type
Mon 06:20:40 PM 42.0167 -87.9667 14° North 171 197 2,700  Level Chicago TRACON
Mon 06:21:40 PM 42.0667 -88.0000 334° Northwest 229 264 5,000 1,150 Climbing Chicago TRACON
Mon 06:22:40 PM 42.1411 -88.0008 360° North 263 303 5,000 1,033 Level Chicago Center
Mon 06:23:00 PM 42.3235 -87.7900 10° North  Level FlightAware Approximate
Mon 06:23:42 PM 42.2150 -88.0053 357° North 268 308 7,100  Level Chicago Center
Mon 06:24:00 PM 42.4110 -87.7529 20° North  Level FlightAware Approximate
Mon 06:24:44 PM 42.2903 -88.0172 353° North 273 314 10,100  Level Chicago Center
Mon 06:25:00 PM 42.5016 -87.7333 North  Level FlightAware Approximate
Mon 06:25:46 PM 42.3756 -88.0297 354° North 283 326 12,600  Level Chicago Center
Mon 06:26:00 PM 42.5898 -87.7090 14° North  Level FlightAware Approximate
Mon 06:26:48 PM 42.4661 -88.0069 11° North 336 387 13,900  Level Chicago Center
Mon 06:27:50 PM 42.5725 -87.9136 33° Northeast 385 443 16,600 2,256 Climbing Chicago Center
Mon 06:28:53 PM 42.6633 -87.8283 35° Northeast 394 453 18,600 1,887 Climbing Chicago Center
Mon 06:29:54 PM 42.7583 -87.7431 33° Northeast 407 468 20,500 1,161 Climbing Chicago Center
Mon 06:30:57 PM 42.8142 -87.6003 62° Northeast 437 503 21,000 240 Climbing Chicago Center
Mon 06:31:59 PM 42.8506 -87.4475 72° East 422 486 21,000  Level Chicago Center
Mon 06:33:01 PM 42.8864 -87.2878 73° East 390 449 21,000  Level Chicago Center
Mon 06:34:03 PM 42.9200 -87.1453 72° East 393 452 21,000  Level Chicago Center
Mon 06:35:05 PM 42.9531 -87.0022 72° East 397 457 21,000  Level Chicago Center
Mon 06:36:07 PM 42.9853 -86.8575 73° East 399 459 21,000  Level Chicago Center
Mon 06:37:09 PM 43.0208 -86.7086 72° East 411 473 21,000  Level Chicago Center
Mon 06:38:11 PM 43.0581 -86.5433 73° East 449 517 21,000  Level Chicago Center
Mon 06:39:13 PM 43.0975 -86.3353 75° East 467 537 21,000  Level Chicago Center
Mon 06:40:15 PM 43.1197 -86.1667 80° East 450 518 21,000  Level Chicago Center
Mon 06:41:17 PM 43.1231 -85.9892 88° East 453 521 21,000  Level Chicago Center
Mon 06:42:20 PM 43.1247 -85.8064 89° East 464 534 21,000  Level Chicago Center
Mon 06:43:22 PM 43.1267 -85.6261 89° East 470 541 21,000  Level Chicago Center
Mon 06:44:24 PM 43.1278 -85.4461 89° East 472 543 21,000  Level Chicago Center
Mon 06:44:44 PM 43.1281 -85.3686 90° East 471 542 21,000  Level Cleveland Center
Mon 06:45:44 PM 43.1269 -85.1892 90° East 471 542 21,000  Level Cleveland Center
Mon 06:46:44 PM 43.1272 -85.0214 90° East 471 542 21,000 -100 Level Cleveland Center
Mon 06:47:44 PM 43.1294 -84.8536 89° East 449 517 20,800 -650 Descending Cleveland Center
Mon 06:48:44 PM 43.1311 -84.6944 89° East 430 495 19,700 -1,250 Descending Cleveland Center
Mon 06:49:44 PM 43.1158 -84.5311 97° East 423 487 18,300 -1,514 Descending Cleveland Center
Mon 06:50:35 PM 43.0944 -84.4164 104° East 421 484 16,900 -1,540 Descending Chicago Center
Mon 06:51:37 PM 43.0431 -84.2797 117° Southeast 404 465 15,400 -1,563 Descending Chicago Center
Mon 06:52:57 PM 42.9672 -84.0783 117° Southeast 404 465 13,200 -1,560 Descending FAA TRACON SMA TRACON (SMA)
Mon 06:53:17 PM 42.9522 -84.0428 120° Southeast 398 458 12,800 -1,350 Descending FAA TRACON SMA TRACON (SMA)
Mon 06:53:37 PM 42.9361 -83.9972 116° Southeast 392 451 12,300 -1,200 Descending FAA TRACON SMA TRACON (SMA)
Mon 06:53:57 PM 42.9172 -83.9469 117° Southeast 389 448 12,000 -450 Descending FAA TRACON SMA TRACON (SMA)
Mon 06:54:17 PM 42.9050 -83.9142 117° Southeast 380 437 12,000  Level FAA TRACON SMA TRACON (SMA)
Mon 06:54:37 PM 42.8892 -83.8717 117° Southeast 354 407 12,000  Level FAA TRACON SMA TRACON (SMA)
Mon 06:54:57 PM 42.8725 -83.8272 117° Southeast 342 394 12,000  Level FAA TRACON SMA TRACON (SMA)
Mon 06:55:17 PM 42.8606 -83.7958 117° Southeast 335 386 12,000  Level FAA TRACON SMA TRACON (SMA)
Mon 06:55:36 PM 42.8478 -83.7611 117° Southeast 306 352 12,000  Level FAA TRACON SMA TRACON (SMA)
Mon 06:55:57 PM 42.8281 -83.7328 133° Southeast 259 298 12,000  Level FAA TRACON SMA TRACON (SMA)
Mon 06:56:17 PM 42.8122 -83.7219 153° Southeast 240 276 12,000  Level FAA TRACON SMA TRACON (SMA)
Mon 06:56:38 PM 42.7911 -83.7078 154° Southeast 240 276 12,000 -450 Level FAA TRACON SMA TRACON (SMA)
Mon 06:56:57 PM 42.7717 -83.6819 136° Southeast 266 306 11,700 -1,077 Descending FAA TRACON SMA TRACON (SMA)
Mon 06:57:17 PM 42.7647 -83.6542 109° East 305 351 11,300 -1,385 Descending FAA TRACON SMA TRACON (SMA)
Mon 06:57:36 PM 42.7564 -83.6161 107° East 299 344 10,800 -1,350 Descending FAA TRACON SMA TRACON (SMA)
Mon 06:57:57 PM 42.7494 -83.5828 106° East 299 344 10,400 -1,171 Descending FAA TRACON SMA TRACON (SMA)
Mon 06:58:17 PM 42.7419 -83.5467 106° East 288 331 10,000 -1,050 Descending FAA TRACON SMA TRACON (SMA)
Mon 06:58:37 PM 42.7350 -83.5122 105° East 266 306 9,700 -1,050 Descending FAA TRACON SMA TRACON (SMA)
Mon 06:58:57 PM 42.7289 -83.4819 105° East 264 304 9,300 -1,077 Descending FAA TRACON SMA TRACON (SMA)
Mon 06:59:16 PM 42.7156 -83.4542 123° Southeast 243 280 9,000 -450 Descending FAA TRACON SMA TRACON (SMA)
Mon 06:59:37 PM 42.6969 -83.4500 171° South 205 236 9,000  Level FAA TRACON SMA TRACON (SMA)
Mon 06:59:57 PM 42.6847 -83.4614 214° Southwest 175 201 9,000  Level FAA TRACON SMA TRACON (SMA)
Mon 07:00:18 PM 42.6700 -83.4767 217° Southwest 172 198 9,000 -150 Level FAA TRACON SMA TRACON (SMA)
Mon 07:00:37 PM 42.6575 -83.4906 219° Southwest 179 206 8,900 -615 Descending FAA TRACON SMA TRACON (SMA)
Mon 07:00:57 PM 42.6456 -83.5033 218° Southwest 178 205 8,600 -1,350 Descending FAA TRACON SMA TRACON (SMA)
Mon 07:01:17 PM 42.6311 -83.5200 220° Southwest 178 205 8,000 -1,500 Descending FAA TRACON SMA TRACON (SMA)
Mon 07:01:37 PM 42.6194 -83.5331 219° Southwest 177 204 7,600 -1,050 Descending FAA TRACON SMA TRACON (SMA)
Mon 07:01:57 PM 42.6083 -83.5461 221° Southwest 173 199 7,300 -878 Descending FAA TRACON SMA TRACON (SMA)
Mon 07:02:18 PM 42.5950 -83.5619 221° Southwest 168 193 7,000 -439 Descending FAA TRACON SMA TRACON (SMA)
Mon 07:02:38 PM 42.5803 -83.5639 186° South 191 220 7,000  Level FAA TRACON SMA TRACON (SMA)
Mon 07:02:56 PM 42.5636 -83.5583 166° South 200 230 7,000 -462 Level FAA TRACON SMA TRACON (SMA)
Mon 07:03:17 PM 42.5425 -83.5514 166° South 202 232 6,700 -1,171 Descending FAA TRACON SMA TRACON (SMA)
Mon 07:03:37 PM 42.5253 -83.5453 165° South 204 235 6,200 -1,024 Descending FAA TRACON SMA TRACON (SMA)
Mon 07:03:58 PM 42.5081 -83.5397 167° South 205 236 6,000 -300 Descending FAA TRACON SMA TRACON (SMA)
Mon 07:04:17 PM 42.4872 -83.5322 165° South 202 232 6,000  Level FAA TRACON SMA TRACON (SMA)
Mon 07:04:37 PM 42.4700 -83.5250 163° South 218 251 6,000  Level FAA TRACON SMA TRACON (SMA)
Mon 07:04:57 PM 42.4564 -83.5042 132° Southeast 253 291 6,000  Level FAA TRACON SMA TRACON (SMA)
Mon 07:05:18 PM 42.4519 -83.4667 99° East 283 326 6,000  Level FAA TRACON SMA TRACON (SMA)
Mon 07:05:37 PM 42.4561 -83.4361 80° East 268 308 6,000  Level FAA TRACON SMA TRACON (SMA)
Mon 07:05:57 PM 42.4694 -83.4125 53° Northeast 254 292 6,000 -150 Level FAA TRACON SMA TRACON (SMA)
Mon 07:06:17 PM 42.4919 -83.3953 29° Northeast 240 276 5,900 -600 Descending FAA TRACON SMA TRACON (SMA)
Mon 07:06:37 PM 42.5097 -83.3822 28° Northeast 236 272 5,600 -1,050 Descending FAA TRACON SMA TRACON (SMA)
Mon 07:06:57 PM 42.5281 -83.3692 28° Northeast 240 276 5,200 -1,350 Descending FAA TRACON SMA TRACON (SMA)
Mon 07:07:17 PM 42.5514 -83.3533 27° Northeast 242 278 4,700 -1,200 Descending FAA TRACON SMA TRACON (SMA)
Mon 07:07:37 PM 42.5700 -83.3414 25° Northeast 242 278 4,400 -1,050 Descending FAA TRACON SMA TRACON (SMA)
Mon 07:07:57 PM 42.5886 -83.3294 25° Northeast 241 277 4,000 -400 Descending FAA TRACON SMA TRACON (SMA)
Mon 07:08:37 PM 42.6047 -83.2778 67° East 235 270 4,000  Level FAA TRACON SMA TRACON (SMA)
Mon 07:08:57 PM 42.6036 -83.2506 93° East 234 269 4,000  Level FAA TRACON SMA TRACON (SMA)
Mon 07:09:17 PM 42.6017 -83.2236 96° East 231 266 4,000  Level FAA TRACON SMA TRACON (SMA)
Mon 07:09:37 PM 42.5917 -83.1944 115° Southeast 213 245 4,000  Level FAA TRACON SMA TRACON (SMA)
Mon 07:09:57 PM 42.5806 -83.1867 153° Southeast 176 203 4,000  Level FAA TRACON SMA TRACON (SMA)
Mon 07:10:17 PM 42.5614 -83.1756 157° South 182 209 4,000  Level FAA TRACON SMA TRACON (SMA)
Mon 07:10:37 PM 42.5442 -83.1667 159° South 175 201 4,000  Level FAA TRACON SMA TRACON (SMA)
Mon 07:10:57 PM 42.5317 -83.1619 164° South 165 190 4,000  Level FAA TRACON SMA TRACON (SMA)
Mon 07:11:17 PM 42.5156 -83.1575 169° South 164 189 4,000  Level FAA TRACON SMA TRACON (SMA)
Mon 07:11:37 PM 42.5028 -83.1589 185° South 149 171 4,000  Level FAA TRACON SMA TRACON (SMA)
Mon 07:11:57 PM 42.4892 -83.1664 202° Southwest 147 169 4,000  Level FAA TRACON SMA TRACON (SMA)
Mon 07:12:17 PM 42.4764 -83.1767 211° Southwest 146 168 4,000  Level FAA TRACON SMA TRACON (SMA)
Mon 07:12:37 PM 42.4667 -83.1858 215° Southwest 142 163 4,000  Level FAA TRACON SMA TRACON (SMA)
Mon 07:12:57 PM 42.4547 -83.1978 216° Southwest 145 167 4,000  Level FAA TRACON SMA TRACON (SMA)
Mon 07:13:17 PM 42.4447 -83.2064 212° Southwest 148 170 4,000  Level FAA TRACON SMA TRACON (SMA)
Mon 07:13:37 PM 42.4317 -83.2164 209° Southwest 151 174 4,000  Level FAA TRACON SMA TRACON (SMA)
Mon 07:13:57 PM 42.4181 -83.2256 206° Southwest 151 174 4,000  Level FAA TRACON SMA TRACON (SMA)
Mon 07:14:17 PM 42.4078 -83.2325 207° Southwest 153 176 4,000  Level FAA TRACON SMA TRACON (SMA)
Mon 07:14:37 PM 42.3931 -83.2422 206° Southwest 155 178 4,000  Level FAA TRACON SMA TRACON (SMA)

Login

Don't have an account? Register now (free) for customized features, flight alerts, and more!